sensor_id;sensor_type;location;lat;lon;timestamp;P1;durP1;ratioP1;P2;durP2;ratioP2
42602;SDS011;28233;55.748;48.752;2022-07-29T00:00:03;10.63;;;4.78;;
42602;SDS011;28233;55.748;48.752;2022-07-29T00:02:07;7.75;;;5.47;;
42602;SDS011;28233;55.748;48.752;2022-07-29T00:04:10;4.78;;;4.38;;
42602;SDS011;28233;55.748;48.752;2022-07-29T00:06:14;5.15;;;4.30;;
42602;SDS011;28233;55.748;48.752;2022-07-29T00:08:17;7.47;;;4.82;;
42602;SDS011;28233;55.748;48.752;2022-07-29T00:10:20;7.65;;;5.22;;
42602;SDS011;28233;55.748;48.752;2022-07-29T00:12:24;7.18;;;4.38;;
42602;SDS011;28233;55.748;48.752;2022-07-29T00:14:28;5.20;;;4.70;;
42602;SDS011;28233;55.748;48.752;2022-07-29T00:16:31;6.80;;;5.18;;
42602;SDS011;28233;55.748;48.752;2022-07-29T00:18:33;6.15;;;4.72;;
42602;SDS011;28233;55.748;48.752;2022-07-29T00:20:36;18.50;;;5.55;;
42602;SDS011;28233;55.748;48.752;2022-07-29T00:22:39;8.18;;;5.47;;
42602;SDS011;28233;55.748;48.752;2022-07-29T00:24:42;5.55;;;4.82;;
42602;SDS011;28233;55.748;48.752;2022-07-29T00:26:44;8.77;;;5.15;;
42602;SDS011;28233;55.748;48.752;2022-07-29T00:28:47;6.55;;;5.15;;
42602;SDS011;28233;55.748;48.752;2022-07-29T00:30:50;6.90;;;5.00;;
42602;SDS011;28233;55.748;48.752;2022-07-29T00:32:52;5.97;;;5.30;;
42602;SDS011;28233;55.748;48.752;2022-07-29T00:34:55;7.60;;;4.47;;
42602;SDS011;28233;55.748;48.752;2022-07-29T00:37:16;6.90;;;5.13;;
42602;SDS011;28233;55.748;48.752;2022-07-29T00:39:19;15.15;;;5.28;;
42602;SDS011;28233;55.748;48.752;2022-07-29T00:41:21;10.70;;;4.93;;
42602;SDS011;28233;55.748;48.752;2022-07-29T00:43:24;7.97;;;4.55;;
42602;SDS011;28233;55.748;48.752;2022-07-29T00:45:27;5.85;;;4.78;;
42602;SDS011;28233;55.748;48.752;2022-07-29T00:47:29;6.43;;;4.65;;
42602;SDS011;28233;55.748;48.752;2022-07-29T00:49:32;8.88;;;5.32;;
42602;SDS011;28233;55.748;48.752;2022-07-29T00:51:36;7.75;;;4.80;;
42602;SDS011;28233;55.748;48.752;2022-07-29T00:53:39;9.40;;;5.30;;
42602;SDS011;28233;55.748;48.752;2022-07-29T00:55:43;5.43;;;4.93;;
42602;SDS011;28233;55.748;48.752;2022-07-29T00:57:46;7.68;;;5.53;;
42602;SDS011;28233;55.748;48.752;2022-07-29T00:59:49;7.13;;;4.97;;
42602;SDS011;28233;55.748;48.752;2022-07-29T01:01:52;7.78;;;5.53;;
42602;SDS011;28233;55.748;48.752;2022-07-29T01:03:55;6.25;;;4.63;;
42602;SDS011;28233;55.748;48.752;2022-07-29T01:05:58;7.63;;;5.05;;
42602;SDS011;28233;55.748;48.752;2022-07-29T01:08:02;6.68;;;5.45;;
42602;SDS011;28233;55.748;48.752;2022-07-29T01:10:06;7.68;;;5.00;;
42602;SDS011;28233;55.748;48.752;2022-07-29T01:12:17;13.32;;;5.35;;
42602;SDS011;28233;55.748;48.752;2022-07-29T01:14:23;7.75;;;4.93;;
42602;SDS011;28233;55.748;48.752;2022-07-29T01:16:51;7.97;;;4.78;;
42602;SDS011;28233;55.748;48.752;2022-07-29T01:29:18;6.07;;;4.63;;
42602;SDS011;28233;55.748;48.752;2022-07-29T01:31:40;5.82;;;4.57;;
42602;SDS011;28233;55.748;48.752;2022-07-29T01:34:04;6.85;;;4.72;;
42602;SDS011;28233;55.748;48.752;2022-07-29T01:36:11;10.10;;;4.70;;
42602;SDS011;28233;55.748;48.752;2022-07-29T01:38:20;9.23;;;4.63;;
42602;SDS011;28233;55.748;48.752;2022-07-29T01:40:29;7.20;;;4.80;;
42602;SDS011;28233;55.748;48.752;2022-07-29T01:42:43;7.32;;;4.50;;
42602;SDS011;28233;55.748;48.752;2022-07-29T01:49:11;5.45;;;4.45;;
42602;SDS011;28233;55.748;48.752;2022-07-29T01:51:20;5.40;;;4.45;;
42602;SDS011;28233;55.748;48.752;2022-07-29T01:53:31;8.93;;;4.18;;
42602;SDS011;28233;55.748;48.752;2022-07-29T01:55:40;7.00;;;4.47;;
42602;SDS011;28233;55.748;48.752;2022-07-29T01:57:47;6.38;;;4.85;;
42602;SDS011;28233;55.748;48.752;2022-07-29T01:59:51;9.57;;;4.90;;
42602;SDS011;28233;55.748;48.752;2022-07-29T02:01:56;8.10;;;4.25;;
42602;SDS011;28233;55.748;48.752;2022-07-29T02:04:03;7.10;;;4.68;;
42602;SDS011;28233;55.748;48.752;2022-07-29T02:06:09;6.05;;;4.22;;
42602;SDS011;28233;55.748;48.752;2022-07-29T02:08:14;6.65;;;4.32;;
42602;SDS011;28233;55.748;48.752;2022-07-29T02:10:20;6.78;;;4.85;;
42602;SDS011;28233;55.748;48.752;2022-07-29T02:12:27;6.38;;;4.07;;
42602;SDS011;28233;55.748;48.752;2022-07-29T02:14:53;7.32;;;4.00;;
42602;SDS011;28233;55.748;48.752;2022-07-29T02:16:58;9.65;;;4.47;;
42602;SDS011;28233;55.748;48.752;2022-07-29T02:19:04;7.63;;;4.28;;
42602;SDS011;28233;55.748;48.752;2022-07-29T02:21:08;7.53;;;4.40;;
42602;SDS011;28233;55.748;48.752;2022-07-29T02:23:18;8.52;;;4.85;;
42602;SDS011;28233;55.748;48.752;2022-07-29T02:25:23;8.07;;;4.63;;
42602;SDS011;28233;55.748;48.752;2022-07-29T02:27:39;6.65;;;4.13;;
42602;SDS011;28233;55.748;48.752;2022-07-29T02:29:43;5.85;;;5.07;;
42602;SDS011;28233;55.748;48.752;2022-07-29T02:31:48;5.38;;;4.13;;
42602;SDS011;28233;55.748;48.752;2022-07-29T02:33:53;6.00;;;4.32;;
42602;SDS011;28233;55.748;48.752;2022-07-29T02:35:57;6.03;;;4.40;;
42602;SDS011;28233;55.748;48.752;2022-07-29T02:38:01;4.22;;;3.53;;
42602;SDS011;28233;55.748;48.752;2022-07-29T02:40:23;7.88;;;4.43;;
42602;SDS011;28233;55.748;48.752;2022-07-29T02:42:26;6.57;;;4.03;;
42602;SDS011;28233;55.748;48.752;2022-07-29T02:44:30;6.35;;;4.03;;
42602;SDS011;28233;55.748;48.752;2022-07-29T02:46:36;6.32;;;3.80;;
42602;SDS011;28233;55.748;48.752;2022-07-29T02:48:58;6.13;;;4.43;;
42602;SDS011;28233;55.748;48.752;2022-07-29T02:51:08;5.65;;;4.10;;
42602;SDS011;28233;55.748;48.752;2022-07-29T02:53:36;7.88;;;3.83;;
42602;SDS011;28233;55.748;48.752;2022-07-29T02:55:40;7.68;;;4.50;;
42602;SDS011;28233;55.748;48.752;2022-07-29T02:57:49;8.02;;;4.38;;
42602;SDS011;28233;55.748;48.752;2022-07-29T03:00:01;6.38;;;3.83;;
42602;SDS011;28233;55.748;48.752;2022-07-29T03:02:07;6.55;;;4.05;;
42602;SDS011;28233;55.748;48.752;2022-07-29T03:04:12;7.07;;;4.63;;
42602;SDS011;28233;55.748;48.752;2022-07-29T03:06:17;10.30;;;4.18;;
42602;SDS011;28233;55.748;48.752;2022-07-29T03:08:39;5.32;;;4.30;;
42602;SDS011;28233;55.748;48.752;2022-07-29T03:10:45;5.63;;;3.65;;
42602;SDS011;28233;55.748;48.752;2022-07-29T03:12:49;5.35;;;4.28;;
42602;SDS011;28233;55.748;48.752;2022-07-29T03:14:52;6.45;;;4.25;;
42602;SDS011;28233;55.748;48.752;2022-07-29T03:16:55;8.75;;;4.35;;
42602;SDS011;28233;55.748;48.752;2022-07-29T03:18:59;5.20;;;4.15;;
42602;SDS011;28233;55.748;48.752;2022-07-29T03:21:03;6.45;;;4.50;;
42602;SDS011;28233;55.748;48.752;2022-07-29T03:23:07;6.53;;;4.80;;
42602;SDS011;28233;55.748;48.752;2022-07-29T03:25:10;5.88;;;3.70;;
42602;SDS011;28233;55.748;48.752;2022-07-29T03:27:13;7.20;;;5.10;;
42602;SDS011;28233;55.748;48.752;2022-07-29T03:29:16;12.88;;;5.22;;
42602;SDS011;28233;55.748;48.752;2022-07-29T03:31:20;5.07;;;3.55;;
42602;SDS011;28233;55.748;48.752;2022-07-29T03:33:23;7.75;;;4.10;;
42602;SDS011;28233;55.748;48.752;2022-07-29T03:35:26;8.32;;;4.30;;
42602;SDS011;28233;55.748;48.752;2022-07-29T03:37:29;5.90;;;3.85;;
42602;SDS011;28233;55.748;48.752;2022-07-29T03:39:35;10.23;;;4.38;;
42602;SDS011;28233;55.748;48.752;2022-07-29T03:41:42;6.22;;;4.15;;
42602;SDS011;28233;55.748;48.752;2022-07-29T03:43:47;8.65;;;3.85;;
42602;SDS011;28233;55.748;48.752;2022-07-29T03:45:53;7.35;;;4.20;;
42602;SDS011;28233;55.748;48.752;2022-07-29T03:48:01;5.93;;;3.70;;
42602;SDS011;28233;55.748;48.752;2022-07-29T03:50:12;8.82;;;4.10;;
42602;SDS011;28233;55.748;48.752;2022-07-29T03:52:17;6.40;;;4.00;;
42602;SDS011;28233;55.748;48.752;2022-07-29T03:54:20;6.25;;;4.13;;
42602;SDS011;28233;55.748;48.752;2022-07-29T03:56:23;8.02;;;3.83;;
42602;SDS011;28233;55.748;48.752;2022-07-29T03:58:26;15.80;;;5.15;;
42602;SDS011;28233;55.748;48.752;2022-07-29T04:00:33;5.93;;;3.63;;
42602;SDS011;28233;55.748;48.752;2022-07-29T04:02:37;8.23;;;4.20;;
42602;SDS011;28233;55.748;48.752;2022-07-29T04:04:42;7.50;;;4.45;;
42602;SDS011;28233;55.748;48.752;2022-07-29T04:06:45;8.07;;;4.38;;
42602;SDS011;28233;55.748;48.752;2022-07-29T04:08:49;7.53;;;3.75;;
42602;SDS011;28233;55.748;48.752;2022-07-29T04:10:51;7.07;;;4.20;;
42602;SDS011;28233;55.748;48.752;2022-07-29T04:12:54;6.90;;;3.75;;
42602;SDS011;28233;55.748;48.752;2022-07-29T04:14:57;4.90;;;3.85;;
42602;SDS011;28233;55.748;48.752;2022-07-29T04:17:00;5.72;;;3.83;;
42602;SDS011;28233;55.748;48.752;2022-07-29T04:19:03;7.68;;;3.58;;
42602;SDS011;28233;55.748;48.752;2022-07-29T04:21:06;4.13;;;3.30;;
42602;SDS011;28233;55.748;48.752;2022-07-29T04:23:09;6.28;;;3.67;;
42602;SDS011;28233;55.748;48.752;2022-07-29T04:25:11;5.80;;;4.07;;
42602;SDS011;28233;55.748;48.752;2022-07-29T04:27:14;7.82;;;3.80;;
42602;SDS011;28233;55.748;48.752;2022-07-29T04:29:16;5.53;;;3.88;;
42602;SDS011;28233;55.748;48.752;2022-07-29T04:31:19;6.63;;;3.38;;
42602;SDS011;28233;55.748;48.752;2022-07-29T04:33:26;10.02;;;4.20;;
42602;SDS011;28233;55.748;48.752;2022-07-29T04:35:29;7.35;;;4.15;;
42602;SDS011;28233;55.748;48.752;2022-07-29T04:37:49;6.63;;;3.42;;
42602;SDS011;28233;55.748;48.752;2022-07-29T04:39:51;5.88;;;3.50;;
42602;SDS011;28233;55.748;48.752;2022-07-29T04:41:54;6.70;;;3.85;;
42602;SDS011;28233;55.748;48.752;2022-07-29T04:43:57;7.78;;;3.83;;
42602;SDS011;28233;55.748;48.752;2022-07-29T04:46:01;6.35;;;4.32;;
42602;SDS011;28233;55.748;48.752;2022-07-29T04:48:04;6.30;;;3.58;;
42602;SDS011;28233;55.748;48.752;2022-07-29T04:50:08;6.13;;;4.00;;
42602;SDS011;28233;55.748;48.752;2022-07-29T04:52:11;6.28;;;3.33;;
42602;SDS011;28233;55.748;48.752;2022-07-29T04:54:14;7.90;;;3.72;;
42602;SDS011;28233;55.748;48.752;2022-07-29T04:56:17;4.10;;;3.00;;
42602;SDS011;28233;55.748;48.752;2022-07-29T04:58:19;9.45;;;4.13;;
42602;SDS011;28233;55.748;48.752;2022-07-29T05:00:22;14.63;;;4.65;;
42602;SDS011;28233;55.748;48.752;2022-07-29T05:02:34;17.67;;;4.30;;
42602;SDS011;28233;55.748;48.752;2022-07-29T05:04:36;4.63;;;3.50;;
42602;SDS011;28233;55.748;48.752;2022-07-29T05:06:39;5.55;;;3.90;;
42602;SDS011;28233;55.748;48.752;2022-07-29T05:08:41;6.20;;;3.17;;
42602;SDS011;28233;55.748;48.752;2022-07-29T05:10:44;8.07;;;3.50;;
42602;SDS011;28233;55.748;48.752;2022-07-29T05:12:47;3.60;;;2.83;;
42602;SDS011;28233;55.748;48.752;2022-07-29T05:14:49;5.68;;;3.65;;
42602;SDS011;28233;55.748;48.752;2022-07-29T05:16:52;6.72;;;3.53;;
42602;SDS011;28233;55.748;48.752;2022-07-29T05:18:58;8.10;;;3.83;;
42602;SDS011;28233;55.748;48.752;2022-07-29T05:21:01;5.78;;;3.70;;
42602;SDS011;28233;55.748;48.752;2022-07-29T05:23:03;6.10;;;2.83;;
42602;SDS011;28233;55.748;48.752;2022-07-29T05:25:06;7.50;;;3.17;;
42602;SDS011;28233;55.748;48.752;2022-07-29T05:27:11;5.93;;;3.00;;
42602;SDS011;28233;55.748;48.752;2022-07-29T05:29:14;10.77;;;3.88;;
42602;SDS011;28233;55.748;48.752;2022-07-29T05:31:37;8.57;;;3.53;;
42602;SDS011;28233;55.748;48.752;2022-07-29T05:33:40;5.07;;;3.10;;
42602;SDS011;28233;55.748;48.752;2022-07-29T05:35:43;9.65;;;3.67;;
42602;SDS011;28233;55.748;48.752;2022-07-29T05:37:45;8.05;;;3.65;;
42602;SDS011;28233;55.748;48.752;2022-07-29T05:39:48;6.93;;;3.47;;
42602;SDS011;28233;55.748;48.752;2022-07-29T05:41:58;4.50;;;3.30;;
42602;SDS011;28233;55.748;48.752;2022-07-29T05:44:00;10.80;;;3.55;;
42602;SDS011;28233;55.748;48.752;2022-07-29T05:46:03;6.43;;;3.53;;
42602;SDS011;28233;55.748;48.752;2022-07-29T05:48:06;4.15;;;3.25;;
42602;SDS011;28233;55.748;48.752;2022-07-29T05:50:09;4.90;;;3.60;;
42602;SDS011;28233;55.748;48.752;2022-07-29T05:52:12;7.20;;;3.63;;
42602;SDS011;28233;55.748;48.752;2022-07-29T05:54:15;9.20;;;3.95;;
42602;SDS011;28233;55.748;48.752;2022-07-29T05:56:18;5.40;;;3.30;;
42602;SDS011;28233;55.748;48.752;2022-07-29T05:58:21;7.47;;;3.83;;
42602;SDS011;28233;55.748;48.752;2022-07-29T06:00:23;6.90;;;3.67;;
42602;SDS011;28233;55.748;48.752;2022-07-29T06:02:26;5.82;;;3.47;;
42602;SDS011;28233;55.748;48.752;2022-07-29T06:04:29;6.82;;;3.60;;
42602;SDS011;28233;55.748;48.752;2022-07-29T06:06:32;10.43;;;3.90;;
42602;SDS011;28233;55.748;48.752;2022-07-29T06:08:35;4.82;;;2.95;;
42602;SDS011;28233;55.748;48.752;2022-07-29T06:10:38;3.42;;;2.90;;
42602;SDS011;28233;55.748;48.752;2022-07-29T06:12:41;4.75;;;3.00;;
42602;SDS011;28233;55.748;48.752;2022-07-29T06:14:43;6.72;;;3.45;;
42602;SDS011;28233;55.748;48.752;2022-07-29T06:16:46;8.07;;;3.47;;
42602;SDS011;28233;55.748;48.752;2022-07-29T06:18:48;7.95;;;3.47;;
42602;SDS011;28233;55.748;48.752;2022-07-29T06:20:51;15.77;;;4.15;;
42602;SDS011;28233;55.748;48.752;2022-07-29T06:22:54;10.30;;;3.65;;
42602;SDS011;28233;55.748;48.752;2022-07-29T06:24:56;7.10;;;3.25;;
42602;SDS011;28233;55.748;48.752;2022-07-29T06:26:59;6.90;;;3.53;;
42602;SDS011;28233;55.748;48.752;2022-07-29T06:29:01;7.80;;;3.20;;
42602;SDS011;28233;55.748;48.752;2022-07-29T06:31:04;6.15;;;3.22;;
42602;SDS011;28233;55.748;48.752;2022-07-29T06:33:15;8.48;;;4.40;;
42602;SDS011;28233;55.748;48.752;2022-07-29T06:35:19;15.05;;;4.13;;
42602;SDS011;28233;55.748;48.752;2022-07-29T06:37:41;5.13;;;3.38;;
42602;SDS011;28233;55.748;48.752;2022-07-29T06:39:44;5.18;;;3.22;;
42602;SDS011;28233;55.748;48.752;2022-07-29T06:41:47;7.88;;;3.42;;
42602;SDS011;28233;55.748;48.752;2022-07-29T06:43:53;8.55;;;3.67;;
42602;SDS011;28233;55.748;48.752;2022-07-29T06:45:58;13.50;;;4.07;;
42602;SDS011;28233;55.748;48.752;2022-07-29T06:48:03;9.45;;;2.78;;
42602;SDS011;28233;55.748;48.752;2022-07-29T06:50:06;4.60;;;3.28;;
42602;SDS011;28233;55.748;48.752;2022-07-29T06:52:10;7.57;;;4.00;;
42602;SDS011;28233;55.748;48.752;2022-07-29T06:54:12;9.52;;;3.75;;
42602;SDS011;28233;55.748;48.752;2022-07-29T06:56:15;11.63;;;3.25;;
42602;SDS011;28233;55.748;48.752;2022-07-29T06:58:18;6.75;;;3.83;;
42602;SDS011;28233;55.748;48.752;2022-07-29T07:00:22;8.23;;;3.85;;
42602;SDS011;28233;55.748;48.752;2022-07-29T07:02:25;11.32;;;3.85;;
42602;SDS011;28233;55.748;48.752;2022-07-29T07:04:28;7.85;;;3.55;;
42602;SDS011;28233;55.748;48.752;2022-07-29T07:06:31;7.55;;;4.03;;
42602;SDS011;28233;55.748;48.752;2022-07-29T07:08:34;11.55;;;3.60;;
42602;SDS011;28233;55.748;48.752;2022-07-29T07:10:37;7.30;;;3.83;;
42602;SDS011;28233;55.748;48.752;2022-07-29T07:12:39;15.80;;;3.63;;
42602;SDS011;28233;55.748;48.752;2022-07-29T07:14:42;13.70;;;4.25;;
42602;SDS011;28233;55.748;48.752;2022-07-29T07:16:45;9.45;;;4.53;;
42602;SDS011;28233;55.748;48.752;2022-07-29T07:18:48;18.33;;;4.35;;
42602;SDS011;28233;55.748;48.752;2022-07-29T07:20:51;7.78;;;3.60;;
42602;SDS011;28233;55.748;48.752;2022-07-29T07:22:53;6.38;;;3.92;;
42602;SDS011;28233;55.748;48.752;2022-07-29T07:24:56;8.20;;;4.07;;
42602;SDS011;28233;55.748;48.752;2022-07-29T07:26:59;10.32;;;3.95;;
42602;SDS011;28233;55.748;48.752;2022-07-29T07:29:02;8.93;;;3.90;;
42602;SDS011;28233;55.748;48.752;2022-07-29T07:31:04;8.07;;;4.15;;
42602;SDS011;28233;55.748;48.752;2022-07-29T07:33:07;5.63;;;3.67;;
42602;SDS011;28233;55.748;48.752;2022-07-29T07:35:10;6.45;;;3.25;;
42602;SDS011;28233;55.748;48.752;2022-07-29T07:37:13;5.68;;;3.80;;
42602;SDS011;28233;55.748;48.752;2022-07-29T07:39:16;8.80;;;3.67;;
42602;SDS011;28233;55.748;48.752;2022-07-29T07:41:19;6.35;;;3.50;;
42602;SDS011;28233;55.748;48.752;2022-07-29T07:43:22;11.35;;;3.80;;
42602;SDS011;28233;55.748;48.752;2022-07-29T07:45:25;5.55;;;3.78;;
42602;SDS011;28233;55.748;48.752;2022-07-29T07:47:29;6.88;;;3.72;;
42602;SDS011;28233;55.748;48.752;2022-07-29T07:49:35;12.30;;;3.90;;
42602;SDS011;28233;55.748;48.752;2022-07-29T07:51:37;6.28;;;4.00;;
42602;SDS011;28233;55.748;48.752;2022-07-29T07:53:40;4.78;;;3.50;;
42602;SDS011;28233;55.748;48.752;2022-07-29T07:55:43;4.32;;;3.55;;
42602;SDS011;28233;55.748;48.752;2022-07-29T07:58:05;6.70;;;4.03;;
42602;SDS011;28233;55.748;48.752;2022-07-29T08:00:08;5.38;;;3.58;;
42602;SDS011;28233;55.748;48.752;2022-07-29T08:02:11;9.35;;;3.42;;
42602;SDS011;28233;55.748;48.752;2022-07-29T08:04:14;8.13;;;3.67;;
42602;SDS011;28233;55.748;48.752;2022-07-29T08:06:17;5.68;;;3.40;;
42602;SDS011;28233;55.748;48.752;2022-07-29T08:08:20;5.93;;;3.92;;
42602;SDS011;28233;55.748;48.752;2022-07-29T08:10:23;4.72;;;3.00;;
42602;SDS011;28233;55.748;48.752;2022-07-29T08:12:44;5.88;;;3.40;;
42602;SDS011;28233;55.748;48.752;2022-07-29T08:14:47;4.63;;;3.22;;
42602;SDS011;28233;55.748;48.752;2022-07-29T08:16:50;6.03;;;3.42;;
42602;SDS011;28233;55.748;48.752;2022-07-29T08:18:53;5.95;;;3.72;;
42602;SDS011;28233;55.748;48.752;2022-07-29T08:20:58;4.88;;;3.67;;
42602;SDS011;28233;55.748;48.752;2022-07-29T08:23:02;7.32;;;3.47;;
42602;SDS011;28233;55.748;48.752;2022-07-29T08:25:06;6.40;;;3.55;;
42602;SDS011;28233;55.748;48.752;2022-07-29T08:27:10;10.90;;;3.38;;
42602;SDS011;28233;55.748;48.752;2022-07-29T08:29:33;6.32;;;3.88;;
42602;SDS011;28233;55.748;48.752;2022-07-29T08:31:40;4.75;;;3.45;;
42602;SDS011;28233;55.748;48.752;2022-07-29T08:33:43;4.82;;;3.33;;
42602;SDS011;28233;55.748;48.752;2022-07-29T08:35:45;4.88;;;3.00;;
42602;SDS011;28233;55.748;48.752;2022-07-29T08:37:48;5.75;;;3.70;;
42602;SDS011;28233;55.748;48.752;2022-07-29T08:39:51;5.30;;;2.97;;
42602;SDS011;28233;55.748;48.752;2022-07-29T08:41:54;6.65;;;4.25;;
42602;SDS011;28233;55.748;48.752;2022-07-29T08:44:02;5.15;;;3.17;;
42602;SDS011;28233;55.748;48.752;2022-07-29T08:46:06;6.45;;;3.58;;
42602;SDS011;28233;55.748;48.752;2022-07-29T08:48:08;7.68;;;3.65;;
42602;SDS011;28233;55.748;48.752;2022-07-29T08:50:11;5.03;;;3.63;;
42602;SDS011;28233;55.748;48.752;2022-07-29T08:52:14;6.40;;;3.35;;
42602;SDS011;28233;55.748;48.752;2022-07-29T08:54:18;7.07;;;3.25;;
42602;SDS011;28233;55.748;48.752;2022-07-29T08:56:22;7.85;;;3.55;;
42602;SDS011;28233;55.748;48.752;2022-07-29T08:58:25;10.05;;;3.83;;
42602;SDS011;28233;55.748;48.752;2022-07-29T09:00:30;5.60;;;3.85;;
42602;SDS011;28233;55.748;48.752;2022-07-29T09:02:35;6.50;;;3.60;;
42602;SDS011;28233;55.748;48.752;2022-07-29T09:04:41;4.43;;;3.30;;
42602;SDS011;28233;55.748;48.752;2022-07-29T09:06:45;7.13;;;3.80;;
42602;SDS011;28233;55.748;48.752;2022-07-29T09:08:50;5.10;;;3.55;;
42602;SDS011;28233;55.748;48.752;2022-07-29T09:10:53;7.13;;;3.85;;
42602;SDS011;28233;55.748;48.752;2022-07-29T09:12:57;5.00;;;3.28;;
42602;SDS011;28233;55.748;48.752;2022-07-29T09:15:00;8.75;;;3.45;;
42602;SDS011;28233;55.748;48.752;2022-07-29T09:17:04;9.35;;;4.15;;
42602;SDS011;28233;55.748;48.752;2022-07-29T09:21:36;6.88;;;3.67;;
42602;SDS011;28233;55.748;48.752;2022-07-29T09:24:08;7.20;;;3.00;;
42602;SDS011;28233;55.748;48.752;2022-07-29T09:26:12;6.15;;;3.20;;
42602;SDS011;28233;55.748;48.752;2022-07-29T09:28:16;8.07;;;3.88;;
42602;SDS011;28233;55.748;48.752;2022-07-29T09:30:19;8.30;;;4.28;;
42602;SDS011;28233;55.748;48.752;2022-07-29T09:32:33;8.23;;;3.70;;
42602;SDS011;28233;55.748;48.752;2022-07-29T09:37:27;6.63;;;3.70;;
42602;SDS011;28233;55.748;48.752;2022-07-29T09:39:31;8.00;;;3.60;;
42602;SDS011;28233;55.748;48.752;2022-07-29T09:41:49;8.50;;;4.00;;
42602;SDS011;28233;55.748;48.752;2022-07-29T09:43:56;8.57;;;4.68;;
42602;SDS011;28233;55.748;48.752;2022-07-29T09:46:13;7.60;;;3.45;;
42602;SDS011;28233;55.748;48.752;2022-07-29T09:48:20;5.13;;;3.50;;
42602;SDS011;28233;55.748;48.752;2022-07-29T09:50:37;6.57;;;3.85;;
42602;SDS011;28233;55.748;48.752;2022-07-29T09:52:44;5.97;;;3.45;;
42602;SDS011;28233;55.748;48.752;2022-07-29T09:54:51;8.18;;;3.72;;
42602;SDS011;28233;55.748;48.752;2022-07-29T09:56:56;7.55;;;3.45;;
42602;SDS011;28233;55.748;48.752;2022-07-29T09:59:04;9.90;;;3.65;;
42602;SDS011;28233;55.748;48.752;2022-07-29T10:01:08;6.40;;;3.45;;
42602;SDS011;28233;55.748;48.752;2022-07-29T10:03:12;5.18;;;3.78;;
42602;SDS011;28233;55.748;48.752;2022-07-29T10:05:25;6.97;;;3.30;;
42602;SDS011;28233;55.748;48.752;2022-07-29T10:07:48;4.35;;;3.00;;
42602;SDS011;28233;55.748;48.752;2022-07-29T10:09:56;5.05;;;3.05;;
42602;SDS011;28233;55.748;48.752;2022-07-29T10:12:12;6.85;;;3.90;;
42602;SDS011;28233;55.748;48.752;2022-07-29T10:14:18;8.80;;;3.65;;
42602;SDS011;28233;55.748;48.752;2022-07-29T10:16:21;5.40;;;3.63;;
42602;SDS011;28233;55.748;48.752;2022-07-29T10:18:23;5.57;;;3.63;;
42602;SDS011;28233;55.748;48.752;2022-07-29T10:20:26;10.38;;;4.53;;
42602;SDS011;28233;55.748;48.752;2022-07-29T10:22:30;4.70;;;3.78;;
42602;SDS011;28233;55.748;48.752;2022-07-29T10:24:52;6.20;;;3.70;;
42602;SDS011;28233;55.748;48.752;2022-07-29T10:26:58;8.85;;;3.70;;
42602;SDS011;28233;55.748;48.752;2022-07-29T10:29:02;8.52;;;4.07;;
42602;SDS011;28233;55.748;48.752;2022-07-29T10:31:06;7.30;;;3.60;;
42602;SDS011;28233;55.748;48.752;2022-07-29T10:38:27;4.97;;;3.83;;
42602;SDS011;28233;55.748;48.752;2022-07-29T10:45:25;5.32;;;3.53;;
42602;SDS011;28233;55.748;48.752;2022-07-29T10:47:28;6.18;;;4.00;;
42602;SDS011;28233;55.748;48.752;2022-07-29T10:49:32;5.97;;;3.72;;
42602;SDS011;28233;55.748;48.752;2022-07-29T10:53:52;6.40;;;3.45;;
42602;SDS011;28233;55.748;48.752;2022-07-29T10:55:56;4.65;;;3.80;;
42602;SDS011;28233;55.748;48.752;2022-07-29T10:58:21;5.45;;;3.30;;
42602;SDS011;28233;55.748;48.752;2022-07-29T11:00:30;5.18;;;3.50;;
42602;SDS011;28233;55.748;48.752;2022-07-29T11:09:19;4.90;;;3.58;;
42602;SDS011;28233;55.748;48.752;2022-07-29T11:11:39;6.47;;;3.30;;
42602;SDS011;28233;55.748;48.752;2022-07-29T11:13:49;5.50;;;3.00;;
42602;SDS011;28233;55.748;48.752;2022-07-29T11:15:56;7.82;;;4.00;;
42602;SDS011;28233;55.748;48.752;2022-07-29T11:22:34;5.25;;;3.88;;
42602;SDS011;28233;55.748;48.752;2022-07-29T11:24:44;4.57;;;3.08;;
42602;SDS011;28233;55.748;48.752;2022-07-29T11:29:20;11.73;;;4.32;;
42602;SDS011;28233;55.748;48.752;2022-07-29T11:31:32;5.68;;;4.03;;
42602;SDS011;28233;55.748;48.752;2022-07-29T11:33:35;6.68;;;3.20;;
42602;SDS011;28233;55.748;48.752;2022-07-29T11:36:07;5.53;;;4.03;;
42602;SDS011;28233;55.748;48.752;2022-07-29T11:38:27;6.28;;;3.72;;
42602;SDS011;28233;55.748;48.752;2022-07-29T11:40:33;9.70;;;3.75;;
42602;SDS011;28233;55.748;48.752;2022-07-29T11:42:37;4.45;;;2.95;;
42602;SDS011;28233;55.748;48.752;2022-07-29T11:47:28;5.15;;;3.08;;
42602;SDS011;28233;55.748;48.752;2022-07-29T11:51:52;4.80;;;3.70;;
42602;SDS011;28233;55.748;48.752;2022-07-29T11:53:57;6.63;;;3.17;;
42602;SDS011;28233;55.748;48.752;2022-07-29T11:56:07;3.75;;;3.03;;
42602;SDS011;28233;55.748;48.752;2022-07-29T12:00:45;5.35;;;3.50;;
42602;SDS011;28233;55.748;48.752;2022-07-29T12:02:51;10.60;;;3.58;;
42602;SDS011;28233;55.748;48.752;2022-07-29T12:04:55;9.43;;;4.20;;
42602;SDS011;28233;55.748;48.752;2022-07-29T12:06:58;6.82;;;3.92;;
42602;SDS011;28233;55.748;48.752;2022-07-29T12:09:07;6.32;;;3.53;;
42602;SDS011;28233;55.748;48.752;2022-07-29T12:11:18;5.75;;;3.47;;
42602;SDS011;28233;55.748;48.752;2022-07-29T12:13:24;4.65;;;3.60;;
42602;SDS011;28233;55.748;48.752;2022-07-29T12:15:40;6.68;;;3.83;;
42602;SDS011;28233;55.748;48.752;2022-07-29T12:17:48;4.47;;;3.38;;
42602;SDS011;28233;55.748;48.752;2022-07-29T12:19:53;5.53;;;3.40;;
42602;SDS011;28233;55.748;48.752;2022-07-29T12:21:56;5.18;;;3.35;;
42602;SDS011;28233;55.748;48.752;2022-07-29T12:24:03;9.55;;;3.33;;
42602;SDS011;28233;55.748;48.752;2022-07-29T12:26:10;10.45;;;4.22;;
42602;SDS011;28233;55.748;48.752;2022-07-29T12:28:26;8.75;;;4.10;;
42602;SDS011;28233;55.748;48.752;2022-07-29T12:32:44;5.15;;;3.42;;
42602;SDS011;28233;55.748;48.752;2022-07-29T12:34:49;5.55;;;3.80;;
42602;SDS011;28233;55.748;48.752;2022-07-29T12:36:52;9.73;;;3.35;;
42602;SDS011;28233;55.748;48.752;2022-07-29T12:38:55;4.93;;;3.45;;
42602;SDS011;28233;55.748;48.752;2022-07-29T12:40:58;6.68;;;3.47;;
42602;SDS011;28233;55.748;48.752;2022-07-29T12:43:04;12.55;;;3.47;;
42602;SDS011;28233;55.748;48.752;2022-07-29T12:45:11;5.45;;;3.35;;
42602;SDS011;28233;55.748;48.752;2022-07-29T12:47:14;4.60;;;3.20;;
42602;SDS011;28233;55.748;48.752;2022-07-29T12:49:21;4.10;;;3.40;;
42602;SDS011;28233;55.748;48.752;2022-07-29T12:51:28;5.40;;;3.50;;
42602;SDS011;28233;55.748;48.752;2022-07-29T12:53:31;5.47;;;3.05;;
42602;SDS011;28233;55.748;48.752;2022-07-29T12:55:40;6.18;;;3.35;;
42602;SDS011;28233;55.748;48.752;2022-07-29T12:57:47;6.18;;;3.72;;
42602;SDS011;28233;55.748;48.752;2022-07-29T12:59:59;4.90;;;3.22;;
42602;SDS011;28233;55.748;48.752;2022-07-29T13:02:04;5.28;;;3.58;;
42602;SDS011;28233;55.748;48.752;2022-07-29T13:04:08;7.38;;;3.60;;
42602;SDS011;28233;55.748;48.752;2022-07-29T13:08:58;6.53;;;4.00;;
42602;SDS011;28233;55.748;48.752;2022-07-29T13:11:02;5.32;;;3.63;;
42602;SDS011;28233;55.748;48.752;2022-07-29T13:15:12;4.40;;;3.20;;
42602;SDS011;28233;55.748;48.752;2022-07-29T13:17:19;5.18;;;3.42;;
42602;SDS011;28233;55.748;48.752;2022-07-29T13:19:32;4.82;;;3.17;;
42602;SDS011;28233;55.748;48.752;2022-07-29T13:21:35;5.32;;;3.10;;
42602;SDS011;28233;55.748;48.752;2022-07-29T13:23:39;7.07;;;3.85;;
42602;SDS011;28233;55.748;48.752;2022-07-29T13:25:42;6.00;;;3.38;;